sensor_id;sensor_type;location;lat;lon;timestamp;temperature;humidity
24450;DHT22;13349;50.984;5.822;2024-02-14T00:00:02;9.10;99.90
24450;DHT22;13349;50.984;5.822;2024-02-14T00:02:30;9.00;99.90
24450;DHT22;13349;50.984;5.822;2024-02-14T00:04:58;9.10;99.90
24450;DHT22;13349;50.984;5.822;2024-02-14T00:07:25;9.10;99.90
24450;DHT22;13349;50.984;5.822;2024-02-14T00:09:52;9.20;99.90
24450;DHT22;13349;50.984;5.822;2024-02-14T00:12:20;9.20;99.90
24450;DHT22;13349;50.984;5.822;2024-02-14T00:14:47;9.30;99.90
24450;DHT22;13349;50.984;5.822;2024-02-14T00:17:14;9.30;99.90
24450;DHT22;13349;50.984;5.822;2024-02-14T00:19:41;9.10;99.90
24450;DHT22;13349;50.984;5.822;2024-02-14T00:22:10;9.10;99.90
24450;DHT22;13349;50.984;5.822;2024-02-14T00:24:38;9.10;99.90
24450;DHT22;13349;50.984;5.822;2024-02-14T00:27:05;9.20;99.90
24450;DHT22;13349;50.984;5.822;2024-02-14T00:29:32;9.20;99.90
24450;DHT22;13349;50.984;5.822;2024-02-14T00:32:00;9.20;99.90
24450;DHT22;13349;50.984;5.822;2024-02-14T00:34:27;9.20;99.90
24450;DHT22;13349;50.984;5.822;2024-02-14T00:36:54;9.30;99.90
24450;DHT22;13349;50.984;5.822;2024-02-14T00:39:22;9.30;99.90
24450;DHT22;13349;50.984;5.822;2024-02-14T00:41:49;9.30;99.90
24450;DHT22;13349;50.984;5.822;2024-02-14T00:44:18;9.30;99.90
24450;DHT22;13349;50.984;5.822;2024-02-14T00:46:45;9.20;99.90
24450;DHT22;13349;50.984;5.822;2024-02-14T00:49:12;9.30;99.90
24450;DHT22;13349;50.984;5.822;2024-02-14T00:51:39;9.20;99.90
24450;DHT22;13349;50.984;5.822;2024-02-14T00:54:06;9.20;99.90
24450;DHT22;13349;50.984;5.822;2024-02-14T00:56:34;9.20;99.90
24450;DHT22;13349;50.984;5.822;2024-02-14T00:59:01;9.30;99.90
24450;DHT22;13349;50.984;5.822;2024-02-14T01:01:28;9.30;99.90
24450;DHT22;13349;50.984;5.822;2024-02-14T01:03:55;9.40;99.90
24450;DHT22;13349;50.984;5.822;2024-02-14T01:06:22;9.40;99.90
24450;DHT22;13349;50.984;5.822;2024-02-14T01:08:50;9.40;99.90
24450;DHT22;13349;50.984;5.822;2024-02-14T01:11:17;9.40;99.90
24450;DHT22;13349;50.984;5.822;2024-02-14T01:13:45;9.50;99.90
24450;DHT22;13349;50.984;5.822;2024-02-14T01:16:12;9.50;99.90
24450;DHT22;13349;50.984;5.822;2024-02-14T01:18:39;9.40;99.90
24450;DHT22;13349;50.984;5.822;2024-02-14T01:21:06;9.50;99.90
24450;DHT22;13349;50.984;5.822;2024-02-14T01:23:34;9.50;99.90
24450;DHT22;13349;50.984;5.822;2024-02-14T01:26:01;9.50;99.90
24450;DHT22;13349;50.984;5.822;2024-02-14T01:28:29;9.50;99.90
24450;DHT22;13349;50.984;5.822;2024-02-14T01:30:57;9.50;99.90
24450;DHT22;13349;50.984;5.822;2024-02-14T01:33:24;9.50;99.90
24450;DHT22;13349;50.984;5.822;2024-02-14T01:35:51;9.50;99.90
24450;DHT22;13349;50.984;5.822;2024-02-14T01:38:18;9.50;99.90
24450;DHT22;13349;50.984;5.822;2024-02-14T01:40:45;9.70;99.90
24450;DHT22;13349;50.984;5.822;2024-02-14T01:43:12;9.70;99.90
24450;DHT22;13349;50.984;5.822;2024-02-14T01:45:40;9.60;99.90
24450;DHT22;13349;50.984;5.822;2024-02-14T01:48:08;9.60;99.90
24450;DHT22;13349;50.984;5.822;2024-02-14T01:50:36;9.60;99.90
24450;DHT22;13349;50.984;5.822;2024-02-14T01:53:05;9.60;99.90
24450;DHT22;13349;50.984;5.822;2024-02-14T01:55:32;9.60;99.90
24450;DHT22;13349;50.984;5.822;2024-02-14T01:58:00;9.60;99.90
24450;DHT22;13349;50.984;5.822;2024-02-14T02:00:29;9.60;99.90
24450;DHT22;13349;50.984;5.822;2024-02-14T02:02:57;9.70;99.90
24450;DHT22;13349;50.984;5.822;2024-02-14T02:05:25;9.70;99.90
24450;DHT22;13349;50.984;5.822;2024-02-14T02:07:52;9.80;99.90
24450;DHT22;13349;50.984;5.822;2024-02-14T02:10:19;9.70;99.90
24450;DHT22;13349;50.984;5.822;2024-02-14T02:12:47;9.70;99.90
24450;DHT22;13349;50.984;5.822;2024-02-14T02:15:16;9.70;99.90
24450;DHT22;13349;50.984;5.822;2024-02-14T02:17:43;9.70;99.90
24450;DHT22;13349;50.984;5.822;2024-02-14T02:20:13;9.70;99.90
24450;DHT22;13349;50.984;5.822;2024-02-14T02:22:44;9.70;99.90
24450;DHT22;13349;50.984;5.822;2024-02-14T02:25:12;9.80;99.90
24450;DHT22;13349;50.984;5.822;2024-02-14T02:27:39;9.80;99.90
24450;DHT22;13349;50.984;5.822;2024-02-14T02:30:06;9.70;99.90
24450;DHT22;13349;50.984;5.822;2024-02-14T02:32:35;9.70;99.90
24450;DHT22;13349;50.984;5.822;2024-02-14T02:35:03;9.80;99.90
24450;DHT22;13349;50.984;5.822;2024-02-14T02:37:30;9.70;99.90
24450;DHT22;13349;50.984;5.822;2024-02-14T02:39:59;9.60;99.90
24450;DHT22;13349;50.984;5.822;2024-02-14T02:42:26;9.50;99.90
24450;DHT22;13349;50.984;5.822;2024-02-14T02:44:52;9.50;99.90
24450;DHT22;13349;50.984;5.822;2024-02-14T02:47:19;9.50;99.90
24450;DHT22;13349;50.984;5.822;2024-02-14T02:49:46;9.40;99.90
24450;DHT22;13349;50.984;5.822;2024-02-14T02:52:13;9.30;99.90
24450;DHT22;13349;50.984;5.822;2024-02-14T02:54:40;9.30;99.90
24450;DHT22;13349;50.984;5.822;2024-02-14T02:57:10;9.20;99.90
24450;DHT22;13349;50.984;5.822;2024-02-14T02:59:37;9.20;99.90
24450;DHT22;13349;50.984;5.822;2024-02-14T03:02:08;9.30;99.90
24450;DHT22;13349;50.984;5.822;2024-02-14T03:04:37;9.30;99.90
24450;DHT22;13349;50.984;5.822;2024-02-14T03:07:04;9.30;99.90
24450;DHT22;13349;50.984;5.822;2024-02-14T03:09:34;9.30;99.90
24450;DHT22;13349;50.984;5.822;2024-02-14T03:12:01;9.40;99.90
24450;DHT22;13349;50.984;5.822;2024-02-14T03:14:30;9.40;99.90
24450;DHT22;13349;50.984;5.822;2024-02-14T03:16:58;9.40;99.90
24450;DHT22;13349;50.984;5.822;2024-02-14T03:19:27;9.50;99.90
24450;DHT22;13349;50.984;5.822;2024-02-14T03:21:54;9.40;99.90
24450;DHT22;13349;50.984;5.822;2024-02-14T03:24:21;9.50;99.90
24450;DHT22;13349;50.984;5.822;2024-02-14T03:26:50;9.50;99.90
24450;DHT22;13349;50.984;5.822;2024-02-14T03:29:19;9.50;99.90
24450;DHT22;13349;50.984;5.822;2024-02-14T03:31:46;9.40;99.90
24450;DHT22;13349;50.984;5.822;2024-02-14T03:34:13;9.40;99.90
24450;DHT22;13349;50.984;5.822;2024-02-14T03:36:40;9.40;99.90
24450;DHT22;13349;50.984;5.822;2024-02-14T03:39:08;9.40;99.90
24450;DHT22;13349;50.984;5.822;2024-02-14T03:41:36;9.30;99.90
24450;DHT22;13349;50.984;5.822;2024-02-14T03:44:03;9.30;99.90
24450;DHT22;13349;50.984;5.822;2024-02-14T03:46:32;9.30;99.90
24450;DHT22;13349;50.984;5.822;2024-02-14T03:49:02;9.30;99.90
24450;DHT22;13349;50.984;5.822;2024-02-14T03:51:29;9.40;99.90
24450;DHT22;13349;50.984;5.822;2024-02-14T03:53:56;9.40;99.90
24450;DHT22;13349;50.984;5.822;2024-02-14T03:56:22;9.50;99.90
24450;DHT22;13349;50.984;5.822;2024-02-14T03:58:49;9.40;99.90
24450;DHT22;13349;50.984;5.822;2024-02-14T04:01:16;9.40;99.90
24450;DHT22;13349;50.984;5.822;2024-02-14T04:03:45;9.40;99.90
24450;DHT22;13349;50.984;5.822;2024-02-14T04:06:14;9.60;99.90
24450;DHT22;13349;50.984;5.822;2024-02-14T04:08:41;9.70;99.90
24450;DHT22;13349;50.984;5.822;2024-02-14T04:11:08;9.70;99.90
24450;DHT22;13349;50.984;5.822;2024-02-14T04:13:35;9.70;99.90
24450;DHT22;13349;50.984;5.822;2024-02-14T04:16:02;9.70;99.90
24450;DHT22;13349;50.984;5.822;2024-02-14T04:18:29;9.60;99.90
24450;DHT22;13349;50.984;5.822;2024-02-14T04:20:56;9.50;99.90
24450;DHT22;13349;50.984;5.822;2024-02-14T04:23:24;9.40;99.90
24450;DHT22;13349;50.984;5.822;2024-02-14T04:25:51;9.30;99.90
24450;DHT22;13349;50.984;5.822;2024-02-14T04:28:18;9.30;99.90
24450;DHT22;13349;50.984;5.822;2024-02-14T04:30:45;9.30;99.90
24450;DHT22;13349;50.984;5.822;2024-02-14T04:33:13;9.30;99.90
24450;DHT22;13349;50.984;5.822;2024-02-14T04:35:40;9.20;99.90
24450;DHT22;13349;50.984;5.822;2024-02-14T04:38:07;9.20;99.90
24450;DHT22;13349;50.984;5.822;2024-02-14T04:40:36;9.30;99.90
24450;DHT22;13349;50.984;5.822;2024-02-14T04:43:04;9.20;99.90
24450;DHT22;13349;50.984;5.822;2024-02-14T04:45:31;9.20;99.90
24450;DHT22;13349;50.984;5.822;2024-02-14T04:47:58;9.30;99.90
24450;DHT22;13349;50.984;5.822;2024-02-14T04:50:25;9.20;99.90
24450;DHT22;13349;50.984;5.822;2024-02-14T04:52:52;9.20;99.90
24450;DHT22;13349;50.984;5.822;2024-02-14T04:55:19;9.20;99.90
24450;DHT22;13349;50.984;5.822;2024-02-14T04:57:47;9.10;99.90
24450;DHT22;13349;50.984;5.822;2024-02-14T05:00:14;9.20;99.90
24450;DHT22;13349;50.984;5.822;2024-02-14T05:02:41;9.20;99.90
24450;DHT22;13349;50.984;5.822;2024-02-14T05:05:08;9.20;99.90
24450;DHT22;13349;50.984;5.822;2024-02-14T05:07:35;9.20;99.90
24450;DHT22;13349;50.984;5.822;2024-02-14T05:10:02;9.30;99.90
24450;DHT22;13349;50.984;5.822;2024-02-14T05:12:29;9.30;99.90
24450;DHT22;13349;50.984;5.822;2024-02-14T05:14:58;9.40;99.90
24450;DHT22;13349;50.984;5.822;2024-02-14T05:17:24;9.40;99.90
24450;DHT22;13349;50.984;5.822;2024-02-14T05:19:51;9.40;99.90
24450;DHT22;13349;50.984;5.822;2024-02-14T05:22:18;9.40;99.90
24450;DHT22;13349;50.984;5.822;2024-02-14T05:24:45;9.50;99.90
24450;DHT22;13349;50.984;5.822;2024-02-14T05:27:12;9.50;99.90
24450;DHT22;13349;50.984;5.822;2024-02-14T05:29:39;9.60;99.90
24450;DHT22;13349;50.984;5.822;2024-02-14T05:32:07;9.60;99.90
24450;DHT22;13349;50.984;5.822;2024-02-14T05:34:35;9.60;99.90
24450;DHT22;13349;50.984;5.822;2024-02-14T05:37:02;9.60;99.90
24450;DHT22;13349;50.984;5.822;2024-02-14T05:39:31;9.70;99.90
24450;DHT22;13349;50.984;5.822;2024-02-14T05:41:57;9.80;99.90
24450;DHT22;13349;50.984;5.822;2024-02-14T05:44:24;9.80;99.90
24450;DHT22;13349;50.984;5.822;2024-02-14T05:46:52;9.80;99.90
24450;DHT22;13349;50.984;5.822;2024-02-14T05:49:21;9.70;99.90
24450;DHT22;13349;50.984;5.822;2024-02-14T05:51:49;9.80;99.90
24450;DHT22;13349;50.984;5.822;2024-02-14T05:54:18;9.80;99.90
24450;DHT22;13349;50.984;5.822;2024-02-14T05:56:45;10.00;99.90
24450;DHT22;13349;50.984;5.822;2024-02-14T05:59:12;9.90;99.90
24450;DHT22;13349;50.984;5.822;2024-02-14T06:01:39;9.80;99.90
24450;DHT22;13349;50.984;5.822;2024-02-14T06:04:06;9.70;99.90
24450;DHT22;13349;50.984;5.822;2024-02-14T06:06:34;9.60;99.90
24450;DHT22;13349;50.984;5.822;2024-02-14T06:09:01;9.60;99.90
24450;DHT22;13349;50.984;5.822;2024-02-14T06:11:35;9.70;99.90
24450;DHT22;13349;50.984;5.822;2024-02-14T06:14:04;9.60;99.90
24450;DHT22;13349;50.984;5.822;2024-02-14T06:16:31;9.60;99.90
24450;DHT22;13349;50.984;5.822;2024-02-14T06:18:58;9.70;99.90
24450;DHT22;13349;50.984;5.822;2024-02-14T06:21:25;9.70;99.90
24450;DHT22;13349;50.984;5.822;2024-02-14T06:23:53;9.90;99.90
24450;DHT22;13349;50.984;5.822;2024-02-14T06:26:20;9.80;99.90
24450;DHT22;13349;50.984;5.822;2024-02-14T06:28:47;9.90;99.90
24450;DHT22;13349;50.984;5.822;2024-02-14T06:31:19;10.00;99.90
24450;DHT22;13349;50.984;5.822;2024-02-14T06:33:47;10.00;99.90
24450;DHT22;13349;50.984;5.822;2024-02-14T06:36:14;10.00;99.90
24450;DHT22;13349;50.984;5.822;2024-02-14T06:38:41;9.90;99.90
24450;DHT22;13349;50.984;5.822;2024-02-14T06:41:10;9.90;99.90
24450;DHT22;13349;50.984;5.822;2024-02-14T06:43:37;9.80;99.90
24450;DHT22;13349;50.984;5.822;2024-02-14T06:46:04;9.90;99.90
24450;DHT22;13349;50.984;5.822;2024-02-14T06:48:31;9.90;99.90
24450;DHT22;13349;50.984;5.822;2024-02-14T06:50:59;9.90;99.90
24450;DHT22;13349;50.984;5.822;2024-02-14T06:53:26;9.80;99.90
24450;DHT22;13349;50.984;5.822;2024-02-14T06:55:53;9.90;99.90
24450;DHT22;13349;50.984;5.822;2024-02-14T06:58:21;9.90;99.90
24450;DHT22;13349;50.984;5.822;2024-02-14T07:00:48;9.90;99.90
24450;DHT22;13349;50.984;5.822;2024-02-14T07:03:16;10.00;99.90
24450;DHT22;13349;50.984;5.822;2024-02-14T07:05:43;10.00;99.90
24450;DHT22;13349;50.984;5.822;2024-02-14T07:08:10;10.00;99.90
24450;DHT22;13349;50.984;5.822;2024-02-14T07:10:37;10.10;99.90
24450;DHT22;13349;50.984;5.822;2024-02-14T07:13:04;10.20;99.90
24450;DHT22;13349;50.984;5.822;2024-02-14T07:15:33;10.20;99.90
24450;DHT22;13349;50.984;5.822;2024-02-14T07:18:00;10.10;99.90
24450;DHT22;13349;50.984;5.822;2024-02-14T07:20:26;10.20;99.90
24450;DHT22;13349;50.984;5.822;2024-02-14T07:22:53;10.20;99.90
24450;DHT22;13349;50.984;5.822;2024-02-14T07:25:22;10.20;99.90
24450;DHT22;13349;50.984;5.822;2024-02-14T07:27:48;10.20;99.90
24450;DHT22;13349;50.984;5.822;2024-02-14T07:30:15;10.20;99.90
24450;DHT22;13349;50.984;5.822;2024-02-14T07:32:44;10.30;99.90
24450;DHT22;13349;50.984;5.822;2024-02-14T07:35:12;10.30;99.90
24450;DHT22;13349;50.984;5.822;2024-02-14T07:37:39;10.30;99.90
24450;DHT22;13349;50.984;5.822;2024-02-14T07:40:07;10.30;99.90
24450;DHT22;13349;50.984;5.822;2024-02-14T07:42:34;10.20;99.90
24450;DHT22;13349;50.984;5.822;2024-02-14T07:45:01;10.20;99.90
24450;DHT22;13349;50.984;5.822;2024-02-14T07:47:28;10.40;99.90
24450;DHT22;13349;50.984;5.822;2024-02-14T07:49:57;10.50;99.90
24450;DHT22;13349;50.984;5.822;2024-02-14T07:52:24;10.50;99.90
24450;DHT22;13349;50.984;5.822;2024-02-14T07:54:52;10.50;99.90
24450;DHT22;13349;50.984;5.822;2024-02-14T07:57:20;10.50;99.90
24450;DHT22;13349;50.984;5.822;2024-02-14T07:59:47;10.60;99.90
24450;DHT22;13349;50.984;5.822;2024-02-14T08:02:14;10.60;99.90
24450;DHT22;13349;50.984;5.822;2024-02-14T08:04:41;10.70;99.90
24450;DHT22;13349;50.984;5.822;2024-02-14T08:07:10;10.70;99.90
24450;DHT22;13349;50.984;5.822;2024-02-14T08:09:37;10.70;99.90
24450;DHT22;13349;50.984;5.822;2024-02-14T08:12:04;10.80;99.90
24450;DHT22;13349;50.984;5.822;2024-02-14T08:14:31;10.80;99.90
24450;DHT22;13349;50.984;5.822;2024-02-14T08:16:59;10.80;99.90
24450;DHT22;13349;50.984;5.822;2024-02-14T08:19:25;10.80;99.90
24450;DHT22;13349;50.984;5.822;2024-02-14T08:21:52;10.90;99.90
24450;DHT22;13349;50.984;5.822;2024-02-14T08:24:25;10.90;99.90
24450;DHT22;13349;50.984;5.822;2024-02-14T08:26:52;10.90;99.90
24450;DHT22;13349;50.984;5.822;2024-02-14T08:29:20;10.90;99.90
24450;DHT22;13349;50.984;5.822;2024-02-14T08:31:47;10.90;99.90
24450;DHT22;13349;50.984;5.822;2024-02-14T08:34:14;11.00;99.90
24450;DHT22;13349;50.984;5.822;2024-02-14T08:36:41;11.00;99.90
24450;DHT22;13349;50.984;5.822;2024-02-14T08:39:08;11.20;99.90
24450;DHT22;13349;50.984;5.822;2024-02-14T08:41:37;11.20;99.90
24450;DHT22;13349;50.984;5.822;2024-02-14T08:44:04;11.20;99.90
24450;DHT22;13349;50.984;5.822;2024-02-14T08:46:31;11.30;99.90
24450;DHT22;13349;50.984;5.822;2024-02-14T08:48:59;11.30;99.90
24450;DHT22;13349;50.984;5.822;2024-02-14T08:51:27;11.30;99.90
24450;DHT22;13349;50.984;5.822;2024-02-14T08:53:54;11.30;99.90
24450;DHT22;13349;50.984;5.822;2024-02-14T08:56:24;11.30;99.90
24450;DHT22;13349;50.984;5.822;2024-02-14T08:58:53;11.30;99.90
24450;DHT22;13349;50.984;5.822;2024-02-14T09:01:20;11.40;99.90
24450;DHT22;13349;50.984;5.822;2024-02-14T09:03:48;11.40;99.90
24450;DHT22;13349;50.984;5.822;2024-02-14T09:06:15;11.40;99.90
24450;DHT22;13349;50.984;5.822;2024-02-14T09:08:43;11.40;99.90
24450;DHT22;13349;50.984;5.822;2024-02-14T09:11:10;11.50;99.90
24450;DHT22;13349;50.984;5.822;2024-02-14T09:13:37;11.60;99.90
24450;DHT22;13349;50.984;5.822;2024-02-14T09:16:06;11.60;99.90
24450;DHT22;13349;50.984;5.822;2024-02-14T09:18:33;11.50;99.90
24450;DHT22;13349;50.984;5.822;2024-02-14T09:21:00;11.60;99.90
24450;DHT22;13349;50.984;5.822;2024-02-14T09:23:29;11.60;99.90
24450;DHT22;13349;50.984;5.822;2024-02-14T09:25:57;11.60;99.90
24450;DHT22;13349;50.984;5.822;2024-02-14T09:28:23;11.60;99.90
24450;DHT22;13349;50.984;5.822;2024-02-14T09:30:50;11.60;99.90
24450;DHT22;13349;50.984;5.822;2024-02-14T09:33:19;11.60;99.90
24450;DHT22;13349;50.984;5.822;2024-02-14T09:35:46;11.60;99.90
24450;DHT22;13349;50.984;5.822;2024-02-14T09:38:13;11.70;99.90
24450;DHT22;13349;50.984;5.822;2024-02-14T09:40:40;11.70;99.90
24450;DHT22;13349;50.984;5.822;2024-02-14T09:43:08;11.70;99.90
24450;DHT22;13349;50.984;5.822;2024-02-14T09:45:39;11.70;99.90
24450;DHT22;13349;50.984;5.822;2024-02-14T09:48:07;11.60;99.90
24450;DHT22;13349;50.984;5.822;2024-02-14T09:50:36;11.40;99.90
24450;DHT22;13349;50.984;5.822;2024-02-14T09:53:03;11.20;99.90
24450;DHT22;13349;50.984;5.822;2024-02-14T09:55:30;11.10;99.90
24450;DHT22;13349;50.984;5.822;2024-02-14T09:57:58;11.00;99.90
24450;DHT22;13349;50.984;5.822;2024-02-14T10:00:30;11.00;99.90
24450;DHT22;13349;50.984;5.822;2024-02-14T10:03:05;10.90;99.90
24450;DHT22;13349;50.984;5.822;2024-02-14T10:05:32;10.90;99.90
24450;DHT22;13349;50.984;5.822;2024-02-14T10:08:00;10.90;99.90
24450;DHT22;13349;50.984;5.822;2024-02-14T10:10:28;10.90;99.90
24450;DHT22;13349;50.984;5.822;2024-02-14T10:12:55;11.00;99.90
24450;DHT22;13349;50.984;5.822;2024-02-14T10:15:23;11.00;99.90
24450;DHT22;13349;50.984;5.822;2024-02-14T10:17:51;11.00;99.90
24450;DHT22;13349;50.984;5.822;2024-02-14T10:20:19;11.10;99.90
24450;DHT22;13349;50.984;5.822;2024-02-14T10:22:47;11.20;99.90
24450;DHT22;13349;50.984;5.822;2024-02-14T10:25:15;11.30;99.90
24450;DHT22;13349;50.984;5.822;2024-02-14T10:27:44;11.40;99.90
24450;DHT22;13349;50.984;5.822;2024-02-14T10:30:13;11.40;99.90
24450;DHT22;13349;50.984;5.822;2024-02-14T10:32:40;11.40;99.90
24450;DHT22;13349;50.984;5.822;2024-02-14T10:35:12;11.50;99.90
24450;DHT22;13349;50.984;5.822;2024-02-14T10:37:40;11.50;99.90
24450;DHT22;13349;50.984;5.822;2024-02-14T10:40:07;11.40;99.90
24450;DHT22;13349;50.984;5.822;2024-02-14T10:42:36;11.30;99.90
24450;DHT22;13349;50.984;5.822;2024-02-14T10:45:04;11.30;99.90
24450;DHT22;13349;50.984;5.822;2024-02-14T10:47:31;11.40;99.90
24450;DHT22;13349;50.984;5.822;2024-02-14T10:50:00;11.60;99.90
24450;DHT22;13349;50.984;5.822;2024-02-14T10:52:28;11.60;99.90
24450;DHT22;13349;50.984;5.822;2024-02-14T10:54:58;11.70;99.90
24450;DHT22;13349;50.984;5.822;2024-02-14T10:57:26;11.80;99.90
24450;DHT22;13349;50.984;5.822;2024-02-14T10:59:55;11.80;99.90
24450;DHT22;13349;50.984;5.822;2024-02-14T11:02:23;11.80;99.90
24450;DHT22;13349;50.984;5.822;2024-02-14T11:04:50;11.80;99.90
24450;DHT22;13349;50.984;5.822;2024-02-14T11:07:19;11.70;99.90
24450;DHT22;13349;50.984;5.822;2024-02-14T11:09:48;11.70;99.90
24450;DHT22;13349;50.984;5.822;2024-02-14T11:12:15;11.60;99.90
24450;DHT22;13349;50.984;5.822;2024-02-14T11:14:42;11.60;99.90
24450;DHT22;13349;50.984;5.822;2024-02-14T11:17:12;11.50;99.90
24450;DHT22;13349;50.984;5.822;2024-02-14T11:19:39;11.50;99.90
24450;DHT22;13349;50.984;5.822;2024-02-14T11:22:10;11.30;99.90
24450;DHT22;13349;50.984;5.822;2024-02-14T11:24:37;11.30;99.90
24450;DHT22;13349;50.984;5.822;2024-02-14T11:27:09;11.60;99.90
24450;DHT22;13349;50.984;5.822;2024-02-14T11:29:38;11.60;99.90
24450;DHT22;13349;50.984;5.822;2024-02-14T11:32:05;11.70;99.90
24450;DHT22;13349;50.984;5.822;2024-02-14T11:34:35;11.70;99.90
24450;DHT22;13349;50.984;5.822;2024-02-14T11:37:02;11.70;99.90
24450;DHT22;13349;50.984;5.822;2024-02-14T11:39:29;11.70;99.90
24450;DHT22;13349;50.984;5.822;2024-02-14T11:41:58;11.70;99.90
24450;DHT22;13349;50.984;5.822;2024-02-14T11:44:25;11.80;99.90
24450;DHT22;13349;50.984;5.822;2024-02-14T11:46:52;11.80;99.90
24450;DHT22;13349;50.984;5.822;2024-02-14T11:49:20;11.80;99.90
24450;DHT22;13349;50.984;5.822;2024-02-14T11:51:49;11.90;99.90
24450;DHT22;13349;50.984;5.822;2024-02-14T11:54:16;11.80;99.90
24450;DHT22;13349;50.984;5.822;2024-02-14T11:56:46;11.80;99.90
24450;DHT22;13349;50.984;5.822;2024-02-14T11:59:13;11.80;99.90
24450;DHT22;13349;50.984;5.822;2024-02-14T12:01:40;11.80;99.90
24450;DHT22;13349;50.984;5.822;2024-02-14T12:04:08;11.80;99.90
24450;DHT22;13349;50.984;5.822;2024-02-14T12:06:35;11.70;99.90
24450;DHT22;13349;50.984;5.822;2024-02-14T12:09:04;11.70;99.90
24450;DHT22;13349;50.984;5.822;2024-02-14T12:11:35;11.70;99.90
24450;DHT22;13349;50.984;5.822;2024-02-14T12:14:03;11.80;99.90
24450;DHT22;13349;50.984;5.822;2024-02-14T12:16:30;11.80;99.90
24450;DHT22;13349;50.984;5.822;2024-02-14T12:19:03;11.80;99.90
24450;DHT22;13349;50.984;5.822;2024-02-14T12:21:33;11.80;99.90
24450;DHT22;13349;50.984;5.822;2024-02-14T12:24:00;11.80;99.90
24450;DHT22;13349;50.984;5.822;2024-02-14T12:26:29;11.90;99.90
24450;DHT22;13349;50.984;5.822;2024-02-14T12:28:56;11.90;99.90
24450;DHT22;13349;50.984;5.822;2024-02-14T12:31:23;11.90;99.90
24450;DHT22;13349;50.984;5.822;2024-02-14T12:33:50;11.90;99.90
24450;DHT22;13349;50.984;5.822;2024-02-14T12:36:20;11.80;99.90
24450;DHT22;13349;50.984;5.822;2024-02-14T12:38:46;11.70;99.90
24450;DHT22;13349;50.984;5.822;2024-02-14T12:41:13;11.60;99.90
24450;DHT22;13349;50.984;5.822;2024-02-14T12:43:42;11.50;99.90
24450;DHT22;13349;50.984;5.822;2024-02-14T12:46:09;11.50;99.90
24450;DHT22;13349;50.984;5.822;2024-02-14T12:48:36;11.60;99.90
24450;DHT22;13349;50.984;5.822;2024-02-14T12:51:03;11.60;99.90
24450;DHT22;13349;50.984;5.822;2024-02-14T12:53:30;11.50;99.90
24450;DHT22;13349;50.984;5.822;2024-02-14T12:55:57;11.50;99.90
24450;DHT22;13349;50.984;5.822;2024-02-14T12:58:24;11.50;99.90
24450;DHT22;13349;50.984;5.822;2024-02-14T13:00:52;11.50;99.90
24450;DHT22;13349;50.984;5.822;2024-02-14T13:03:19;11.50;99.90
24450;DHT22;13349;50.984;5.822;2024-02-14T13:05:46;11.50;99.90
24450;DHT22;13349;50.984;5.822;2024-02-14T13:08:13;11.50;99.90
24450;DHT22;13349;50.984;5.822;2024-02-14T13:10:43;11.50;99.90
24450;DHT22;13349;50.984;5.822;2024-02-14T13:13:10;11.50;99.90
24450;DHT22;13349;50.984;5.822;2024-02-14T13:15:37;11.50;99.90
24450;DHT22;13349;50.984;5.822;2024-02-14T13:18:07;11.50;99.90
24450;DHT22;13349;50.984;5.822;2024-02-14T13:20:35;11.50;99.90
24450;DHT22;13349;50.984;5.822;2024-02-14T13:23:03;11.40;99.90
24450;DHT22;13349;50.984;5.822;2024-02-14T13:25:31;11.40;99.90
24450;DHT22;13349;50.984;5.822;2024-02-14T13:27:58;11.40;99.90
24450;DHT22;13349;50.984;5.822;2024-02-14T13:30:24;11.50;99.90
24450;DHT22;13349;50.984;5.822;2024-02-14T13:32:51;11.50;99.90
24450;DHT22;13349;50.984;5.822;2024-02-14T13:35:20;11.40;99.90
24450;DHT22;13349;50.984;5.822;2024-02-14T13:37:47;11.50;99.90
24450;DHT22;13349;50.984;5.822;2024-02-14T13:40:14;11.50;99.90
24450;DHT22;13349;50.984;5.822;2024-02-14T13:42:41;11.50;99.90
24450;DHT22;13349;50.984;5.822;2024-02-14T13:45:08;11.50;99.90
24450;DHT22;13349;50.984;5.822;2024-02-14T13:47:36;11.50;99.90
24450;DHT22;13349;50.984;5.822;2024-02-14T13:50:04;11.60;99.90
24450;DHT22;13349;50.984;5.822;2024-02-14T13:52:33;11.60;99.90
24450;DHT22;13349;50.984;5.822;2024-02-14T13:55:00;11.60;99.90
24450;DHT22;13349;50.984;5.822;2024-02-14T13:57:28;11.60;99.90
24450;DHT22;13349;50.984;5.822;2024-02-14T13:59:55;11.60;99.90
24450;DHT22;13349;50.984;5.822;2024-02-14T14:02:22;11.60;99.90
24450;DHT22;13349;50.984;5.822;2024-02-14T14:04:49;11.50;99.90
24450;DHT22;13349;50.984;5.822;2024-02-14T14:07:18;11.50;99.90
24450;DHT22;13349;50.984;5.822;2024-02-14T14:09:46;11.60;99.90
24450;DHT22;13349;50.984;5.822;2024-02-14T14:12:13;11.60;99.90
24450;DHT22;13349;50.984;5.822;2024-02-14T14:14:40;11.50;99.90
24450;DHT22;13349;50.984;5.822;2024-02-14T14:17:07;11.60;99.90
24450;DHT22;13349;50.984;5.822;2024-02-14T14:19:33;11.60;99.90
24450;DHT22;13349;50.984;5.822;2024-02-14T14:22:01;11.60;99.90
24450;DHT22;13349;50.984;5.822;2024-02-14T14:24:28;11.60;99.90
24450;DHT22;13349;50.984;5.822;2024-02-14T14:26:58;11.60;99.90
24450;DHT22;13349;50.984;5.822;2024-02-14T14:29:25;11.60;99.90
24450;DHT22;13349;50.984;5.822;2024-02-14T14:31:53;11.70;99.90
24450;DHT22;13349;50.984;5.822;2024-02-14T14:34:20;11.70;99.90
24450;DHT22;13349;50.984;5.822;2024-02-14T14:36:47;11.70;99.90
24450;DHT22;13349;50.984;5.822;2024-02-14T14:39:14;11.70;99.90
24450;DHT22;13349;50.984;5.822;2024-02-14T14:41:41;11.70;99.90
24450;DHT22;13349;50.984;5.822;2024-02-14T14:44:10;11.70;99.90
24450;DHT22;13349;50.984;5.822;2024-02-14T14:46:38;11.80;99.90
24450;DHT22;13349;50.984;5.822;2024-02-14T14:49:07;11.80;99.90
24450;DHT22;13349;50.984;5.822;2024-02-14T14:51:34;11.80;99.90
24450;DHT22;13349;50.984;5.822;2024-02-14T14:54:01;11.80;99.90
24450;DHT22;13349;50.984;5.822;2024-02-14T14:56:28;11.90;99.90
24450;DHT22;13349;50.984;5.822;2024-02-14T14:58:55;11.80;99.90
24450;DHT22;13349;50.984;5.822;2024-02-14T15:01:26;11.80;99.90
24450;DHT22;13349;50.984;5.822;2024-02-14T15:03:53;11.80;99.90
24450;DHT22;13349;50.984;5.822;2024-02-14T15:06:20;11.90;99.90
24450;DHT22;13349;50.984;5.822;2024-02-14T15:08:47;11.90;99.90
24450;DHT22;13349;50.984;5.822;2024-02-14T15:11:14;11.90;99.90
24450;DHT22;13349;50.984;5.822;2024-02-14T15:13:43;11.90;99.90
24450;DHT22;13349;50.984;5.822;2024-02-14T15:16:11;11.90;99.90
24450;DHT22;13349;50.984;5.822;2024-02-14T15:18:40;11.90;99.90
24450;DHT22;13349;50.984;5.822;2024-02-14T15:21:08;11.90;99.90
24450;DHT22;13349;50.984;5.822;2024-02-14T15:23:35;11.90;99.90
24450;DHT22;13349;50.984;5.822;2024-02-14T15:26:02;11.90;99.90
24450;DHT22;13349;50.984;5.822;2024-02-14T15:28:32;11.90;99.90
24450;DHT22;13349;50.984;5.822;2024-02-14T15:31:05;11.90;99.90
24450;DHT22;13349;50.984;5.822;2024-02-14T15:33:51;11.90;99.90
24450;DHT22;13349;50.984;5.822;2024-02-14T15:36:18;11.90;99.90
24450;DHT22;13349;50.984;5.822;2024-02-14T15:38:44;12.00;99.90